Aeroporto :







RITROVATECI SU...

 
LOGIN :

Iscrizione | Disclaimer

   EN    FR    IT 

 









Sommario :    VFR   VFR Marginale   IFR   IFR Intensivo   IFR Molto Intensivo
Visibilità : 
Base nubi : 
>= 8 km
>= 3000ft
5 / 8 km
1000 / 3000 ft
1500m / 5 km
500 / 1000 ft
800 / 1500m
200 / 500 ft
< 800m
< 200 ft
Simboli :   Temporali  Nebbia  Neve Forte  Precipitazioni Forti  Vento > 20 kt






- Altitudine del aeroporto : 84 ft
- Codice IATA : YJT


CYJT - Stephenville

ULTIMO METAR :
  • 171100Z 19009KT 15SM SCT017 OVC024 M03/M05 A2998 RMK SC4SC4 SLP155

METARs OBSOLETI :
  • 171000Z 18011KT 15SM BKN018 M03/M05 A2999 RMK SC7 SLP157
  • 170900Z 20009KT 15SM BKN017 M03/M05 A2997 RMK SC7 SLP153

TAF TAF CYJT
Valido dal 17 a 12 ore il 18 a 12 ore UTC


171139Z 1712/1812 19010KT P6SM SCT020 BKN030
TEMPO 1712/1718 4SM -SHSN OVC020
FM171800 26010G20KT P6SM BKN020
FM172000 24012KT 4SM -SHSN OVC007
FM172300 30012KT 3SM -SHSN OVC015
FM180800 33010G20KT P6SM BKN020 RMK NXT FCST BY 171800Z



MetMap, La meteo Aeronautica in un colpo d'occhio ! - Copyright ORBIFLY Dicembre 2007 - Disclaimer

ORBIFLY MET'MAP TEAM :

Programmazione e sviluppo : Alexandra Zaïnal
Concezione : Baudouin d'Aumeries
Aiuto per la programmazione : Marc-Olivier Méhu
Supporto tecnico e logistico : Manuel Goepfert
Aiuto per la traduzione : Arnaldo La Scala

Contatto : metmap@orbifly.com




FONTI E CREDITI :

   NOAA